createdAt,value
2023-05-23T00:01:10.328Z,10.80
2023-05-23T00:04:04.948Z,10.88
2023-05-23T00:06:58.986Z,11.32
2023-05-23T00:09:52.230Z,11.57
2023-05-23T00:12:48.021Z,11.48
2023-05-23T00:15:42.609Z,10.63
2023-05-23T00:18:35.724Z,11.32
2023-05-23T00:21:30.701Z,11.30
2023-05-23T00:24:23.595Z,10.75
2023-05-23T00:27:16.382Z,11.80
2023-05-23T00:30:10.156Z,9.98
2023-05-23T00:33:03.585Z,10.93
2023-05-23T00:35:56.322Z,10.85
2023-05-23T00:38:50.621Z,11.20
2023-05-23T00:41:43.520Z,10.07
2023-05-23T00:44:36.688Z,9.40
2023-05-23T00:47:30.202Z,10.45
2023-05-23T00:50:24.011Z,10.00
2023-05-23T00:53:17.882Z,9.60
2023-05-23T00:56:13.817Z,11.10
2023-05-23T00:59:10.703Z,9.48
2023-05-23T01:02:04.089Z,10.25
2023-05-23T01:04:57.794Z,9.15
2023-05-23T01:07:51.985Z,9.73
2023-05-23T01:10:45.626Z,9.95
2023-05-23T01:13:47.000Z,9.98
2023-05-23T01:16:48.800Z,8.95
2023-05-23T01:19:56.672Z,9.52
2023-05-23T01:23:25.926Z,9.75
2023-05-23T01:26:26.615Z,8.88
2023-05-23T01:29:25.839Z,8.85
2023-05-23T01:32:19.966Z,9.98
2023-05-23T01:35:15.204Z,9.18
2023-05-23T01:38:08.706Z,8.88
2023-05-23T01:41:01.678Z,9.00
2023-05-23T01:43:54.803Z,8.50
2023-05-23T01:46:49.363Z,8.98
2023-05-23T01:49:45.004Z,8.95
2023-05-23T01:52:39.962Z,8.50
2023-05-23T01:55:33.574Z,8.90
2023-05-23T01:58:26.559Z,9.02
2023-05-23T02:01:19.851Z,7.70
2023-05-23T02:04:15.659Z,9.27
2023-05-23T02:07:08.635Z,8.70
2023-05-23T02:10:01.737Z,8.75
2023-05-23T02:12:54.645Z,8.93
2023-05-23T02:15:47.649Z,7.55
2023-05-23T02:18:40.416Z,8.38
2023-05-23T02:21:35.654Z,9.38
2023-05-23T02:24:28.466Z,9.40
2023-05-23T02:27:21.671Z,8.27
2023-05-23T02:30:15.403Z,8.43
2023-05-23T02:33:09.592Z,8.45
2023-05-23T02:36:03.492Z,8.95
2023-05-23T02:38:58.552Z,8.27
2023-05-23T02:41:51.713Z,8.57
2023-05-23T02:44:44.576Z,8.50
2023-05-23T02:47:39.524Z,8.32
2023-05-23T02:50:32.854Z,8.15
2023-05-23T02:53:26.063Z,8.02
2023-05-23T02:56:22.783Z,8.85
2023-05-23T02:59:15.637Z,8.98
2023-05-23T03:02:09.000Z,8.10
2023-05-23T03:05:03.908Z,7.97
2023-05-23T03:07:57.642Z,7.40
2023-05-23T03:10:50.799Z,7.97
2023-05-23T03:13:44.809Z,7.40
2023-05-23T03:16:38.078Z,7.65
2023-05-23T03:19:33.057Z,7.45
2023-05-23T03:22:27.675Z,7.35
2023-05-23T03:25:20.591Z,7.05
2023-05-23T03:28:13.852Z,6.57
2023-05-23T03:31:08.257Z,7.25
2023-05-23T03:34:01.471Z,7.00
2023-05-23T03:36:54.752Z,7.18
2023-05-23T03:39:47.315Z,6.57
2023-05-23T03:42:40.692Z,6.93
2023-05-23T03:45:34.461Z,6.97
2023-05-23T03:48:30.362Z,6.80
2023-05-23T03:51:24.176Z,7.05
2023-05-23T03:54:19.001Z,7.32
2023-05-23T03:57:11.400Z,6.28
2023-05-23T04:00:06.288Z,6.72
2023-05-23T04:03:01.968Z,6.47
2023-05-23T04:05:57.664Z,6.00
2023-05-23T04:08:50.658Z,6.75
2023-05-23T04:11:44.727Z,6.22
2023-05-23T04:14:39.417Z,6.43
2023-05-23T04:17:33.138Z,6.55
2023-05-23T04:20:26.721Z,6.55
2023-05-23T04:23:21.190Z,6.60
2023-05-23T04:26:14.702Z,6.35
2023-05-23T04:29:07.878Z,6.22
2023-05-23T04:32:00.943Z,5.60
2023-05-23T04:34:53.836Z,6.30
2023-05-23T04:37:46.927Z,5.45
2023-05-23T04:40:41.662Z,6.60
2023-05-23T04:43:35.068Z,6.60
2023-05-23T04:46:28.992Z,6.30
2023-05-23T04:49:22.723Z,6.63
2023-05-23T04:52:15.864Z,6.28
2023-05-23T04:55:09.672Z,7.05
2023-05-23T04:58:04.402Z,6.60
2023-05-23T05:00:57.901Z,6.50
2023-05-23T05:03:50.790Z,7.28
2023-05-23T05:06:43.794Z,6.82
2023-05-23T05:09:36.463Z,6.97
2023-05-23T05:12:29.457Z,7.28
2023-05-23T05:15:23.984Z,7.47
2023-05-23T05:18:17.375Z,6.85
2023-05-23T05:21:11.036Z,6.50
2023-05-23T05:24:06.078Z,6.68
2023-05-23T05:26:58.763Z,7.47
2023-05-23T05:29:53.088Z,6.97
2023-05-23T05:32:48.393Z,7.53
2023-05-23T05:35:41.580Z,7.32
2023-05-23T05:38:34.919Z,8.05
2023-05-23T05:41:27.804Z,7.53
2023-05-23T05:44:21.006Z,7.45
2023-05-23T05:47:14.031Z,7.78
2023-05-23T05:50:10.763Z,7.70
2023-05-23T05:53:03.829Z,7.88
2023-05-23T05:55:56.724Z,6.78
2023-05-23T05:58:49.489Z,6.80
2023-05-23T06:01:42.647Z,7.72
2023-05-23T06:04:35.999Z,7.07
2023-05-23T06:07:30.296Z,7.05
2023-05-23T06:10:24.558Z,7.40
2023-05-23T06:13:17.823Z,7.10
2023-05-23T06:16:11.106Z,7.00
2023-05-23T06:19:04.775Z,6.28
2023-05-23T06:21:57.572Z,6.32
2023-05-23T06:24:52.943Z,6.75
2023-05-23T06:27:46.264Z,6.13
2023-05-23T06:30:39.488Z,6.28
2023-05-23T06:33:33.116Z,6.32
2023-05-23T06:36:25.653Z,6.63
2023-05-23T06:39:18.564Z,6.30
2023-05-23T06:42:13.049Z,6.78
2023-05-23T06:45:06.600Z,5.75
2023-05-23T06:48:01.197Z,6.47
2023-05-23T06:50:55.053Z,6.70
2023-05-23T06:53:47.957Z,6.00
2023-05-23T06:56:40.680Z,6.28
2023-05-23T06:59:35.102Z,6.20
2023-05-23T07:02:27.938Z,5.78
2023-05-23T07:05:22.103Z,5.68
2023-05-23T07:08:14.773Z,5.32
2023-05-23T07:11:07.952Z,5.53
2023-05-23T07:14:01.766Z,5.70
2023-05-23T07:16:56.448Z,5.57
2023-05-23T07:19:49.670Z,5.75
2023-05-23T07:22:42.850Z,5.03
2023-05-23T07:25:35.666Z,5.47
2023-05-23T07:28:29.222Z,5.60
2023-05-23T07:31:23.513Z,4.97
2023-05-23T07:34:18.107Z,5.03
2023-05-23T07:37:11.142Z,5.00
2023-05-23T07:40:06.265Z,5.10
2023-05-23T07:43:00.145Z,5.25
2023-05-23T07:45:52.685Z,5.65
2023-05-23T07:48:46.486Z,5.10
2023-05-23T07:51:41.691Z,4.72
2023-05-23T07:54:34.760Z,4.65
2023-05-23T07:57:27.972Z,4.90
2023-05-23T08:00:21.642Z,4.18
2023-05-23T08:03:15.068Z,4.22
2023-05-23T08:06:08.888Z,4.30
2023-05-23T08:09:03.423Z,4.20
2023-05-23T08:11:56.815Z,4.30
2023-05-23T08:14:52.390Z,3.95
2023-05-23T08:17:45.980Z,4.00
2023-05-23T08:20:39.312Z,4.45
2023-05-23T08:23:33.342Z,4.40
2023-05-23T08:26:34.699Z,3.67
2023-05-23T08:29:28.212Z,4.13
2023-05-23T08:32:21.231Z,4.10
2023-05-23T08:35:14.127Z,4.15
2023-05-23T08:38:08.933Z,4.22
2023-05-23T08:41:03.063Z,3.65
2023-05-23T08:43:58.181Z,3.60
2023-05-23T08:46:54.542Z,4.05
2023-05-23T08:49:48.110Z,3.08
2023-05-23T08:52:45.999Z,3.55
2023-05-23T08:55:39.596Z,3.35
2023-05-23T08:58:34.324Z,3.90
2023-05-23T09:01:30.709Z,3.55
2023-05-23T09:04:24.282Z,3.20
2023-05-23T09:07:20.008Z,2.72
2023-05-23T09:10:14.298Z,3.58
2023-05-23T09:13:07.811Z,3.22
2023-05-23T09:16:06.228Z,3.05
2023-05-23T09:19:00.551Z,2.95
2023-05-23T09:21:55.339Z,3.17
2023-05-23T09:24:51.614Z,2.78
2023-05-23T09:27:48.073Z,3.30
2023-05-23T09:30:42.446Z,3.25
2023-05-23T09:33:41.895Z,3.00
2023-05-23T09:36:36.432Z,2.75
2023-05-23T09:39:29.862Z,2.88
2023-05-23T09:42:23.851Z,2.90
2023-05-23T09:45:17.807Z,2.75
2023-05-23T09:48:14.116Z,2.80
2023-05-23T09:51:07.642Z,2.85
2023-05-23T09:54:02.330Z,2.70
2023-05-23T09:56:57.024Z,2.85
2023-05-23T09:59:55.141Z,3.03
2023-05-23T10:03:02.620Z,2.75
2023-05-23T10:06:01.309Z,2.60
2023-05-23T10:08:57.999Z,2.65
2023-05-23T10:12:38.274Z,3.03
2023-05-23T10:15:39.283Z,2.67
2023-05-23T10:18:38.727Z,2.50
2023-05-23T10:21:37.028Z,2.80
2023-05-23T10:24:30.526Z,2.65
2023-05-23T10:27:26.112Z,3.15
2023-05-23T10:30:19.417Z,2.70
2023-05-23T10:33:16.839Z,2.85
2023-05-23T10:36:15.950Z,2.88
2023-05-23T10:39:17.694Z,2.55
2023-05-23T10:42:15.965Z,2.97
2023-05-23T10:45:20.618Z,2.42
2023-05-23T10:48:33.708Z,2.75
2023-05-23T10:51:27.269Z,2.50
2023-05-23T10:54:21.286Z,3.10
2023-05-23T10:57:18.478Z,2.47
2023-05-23T11:00:16.337Z,2.42
2023-05-23T11:03:11.610Z,3.10
2023-05-23T11:06:06.511Z,2.50
2023-05-23T11:09:07.364Z,2.22
2023-05-23T11:12:06.569Z,2.20
2023-05-23T11:15:00.296Z,2.67
2023-05-23T11:17:54.980Z,2.55
2023-05-23T11:20:54.265Z,2.47
2023-05-23T11:23:48.453Z,2.30
2023-05-23T11:26:42.420Z,2.53
2023-05-23T11:29:36.397Z,2.78
2023-05-23T11:32:31.297Z,2.72
2023-05-23T11:35:24.679Z,2.45
2023-05-23T11:38:19.732Z,2.50
2023-05-23T11:41:13.153Z,2.60
2023-05-23T11:44:13.144Z,2.20
2023-05-23T11:47:08.384Z,2.33
2023-05-23T11:50:03.038Z,2.60
2023-05-23T11:52:56.705Z,2.40
2023-05-23T11:55:53.640Z,2.17
2023-05-23T11:58:47.410Z,2.53
2023-05-23T12:01:40.365Z,2.30
2023-05-23T12:04:35.309Z,2.05
2023-05-23T12:07:27.871Z,2.40
2023-05-23T12:10:22.197Z,2.10
2023-05-23T12:13:17.300Z,1.77
2023-05-23T12:16:11.219Z,2.10
2023-05-23T12:19:05.670Z,2.03
2023-05-23T12:22:07.271Z,2.13
2023-05-23T12:25:00.202Z,2.10
2023-05-23T12:27:56.261Z,2.30
2023-05-23T12:30:50.185Z,2.10
2023-05-23T12:33:44.595Z,2.10
2023-05-23T12:36:48.029Z,2.40
2023-05-23T12:39:45.528Z,1.80
2023-05-23T12:42:47.801Z,2.08
2023-05-23T12:45:41.602Z,2.05
2023-05-23T12:48:36.367Z,2.10
2023-05-23T12:51:29.443Z,1.85
2023-05-23T12:54:25.238Z,2.08
2023-05-23T12:57:17.980Z,1.73
2023-05-23T13:00:12.634Z,1.73
2023-05-23T13:03:06.788Z,1.80
2023-05-23T13:06:01.727Z,1.70
2023-05-23T13:08:55.422Z,1.88
2023-05-23T13:11:48.364Z,1.55
2023-05-23T13:14:41.037Z,1.50
2023-05-23T13:17:34.243Z,1.42
2023-05-23T13:20:30.031Z,1.80
2023-05-23T13:23:25.801Z,2.03
2023-05-23T13:26:19.555Z,1.95
2023-05-23T13:29:13.604Z,1.73
2023-05-23T13:32:07.803Z,1.90
2023-05-23T13:35:01.174Z,1.50
2023-05-23T13:37:57.232Z,1.65
2023-05-23T13:40:51.727Z,2.03
2023-05-23T13:43:45.021Z,1.98
2023-05-23T13:46:38.408Z,1.80
2023-05-23T13:49:31.416Z,1.90
2023-05-23T13:52:24.091Z,2.05
2023-05-23T13:55:18.546Z,1.60
2023-05-23T13:58:14.168Z,1.98
2023-05-23T14:01:07.362Z,2.00
2023-05-23T14:04:00.165Z,2.00
2023-05-23T14:06:53.480Z,2.03
2023-05-23T14:09:46.379Z,1.55
2023-05-23T14:12:39.571Z,2.13
2023-05-23T14:15:34.940Z,2.00
2023-05-23T14:18:28.459Z,2.17
2023-05-23T14:21:21.446Z,2.00
2023-05-23T14:24:14.297Z,1.90
2023-05-23T14:27:10.189Z,2.10
2023-05-23T14:30:04.392Z,2.00
2023-05-23T14:32:58.588Z,2.28
2023-05-23T14:35:52.700Z,2.28
2023-05-23T14:38:46.633Z,2.30
2023-05-23T14:41:40.105Z,2.10
2023-05-23T14:44:33.339Z,2.10
2023-05-23T14:47:26.551Z,2.47
2023-05-23T14:50:21.410Z,2.05
2023-05-23T14:53:14.476Z,2.20
2023-05-23T14:56:07.266Z,2.30
2023-05-23T14:59:00.946Z,2.63
2023-05-23T15:01:54.359Z,2.40
2023-05-23T15:04:47.950Z,2.25
2023-05-23T15:07:42.605Z,2.58
2023-05-23T15:10:36.336Z,2.00
2023-05-23T15:13:29.071Z,2.33
2023-05-23T15:16:23.106Z,2.35
2023-05-23T15:19:16.231Z,2.40
2023-05-23T15:22:15.521Z,2.65
2023-05-23T15:25:16.752Z,2.67
2023-05-23T15:28:12.685Z,2.53
2023-05-23T15:31:07.214Z,2.80
2023-05-23T15:34:00.135Z,2.50
2023-05-23T15:36:53.274Z,2.00
2023-05-23T15:39:46.015Z,2.50
2023-05-23T15:42:40.479Z,2.30
2023-05-23T15:45:33.444Z,2.50
2023-05-23T15:48:26.358Z,2.55
2023-05-23T15:51:19.124Z,2.33
2023-05-23T15:54:12.508Z,2.35
2023-05-23T15:57:05.848Z,2.40
2023-05-23T16:00:00.944Z,1.92
2023-05-23T16:02:54.235Z,2.20
2023-05-23T16:05:47.350Z,2.47
2023-05-23T16:08:40.522Z,2.20
2023-05-23T16:11:33.459Z,2.13
2023-05-23T16:14:26.223Z,1.92
2023-05-23T16:17:20.696Z,2.50
2023-05-23T16:20:14.363Z,2.30
2023-05-23T16:23:07.456Z,2.22
2023-05-23T16:26:00.322Z,2.20
2023-05-23T16:28:53.883Z,2.20
2023-05-23T16:31:47.485Z,2.20
2023-05-23T16:34:41.702Z,2.22
2023-05-23T16:37:35.495Z,2.00
2023-05-23T16:40:28.022Z,2.05
2023-05-23T16:43:21.325Z,2.08
2023-05-23T16:46:14.308Z,2.45
2023-05-23T16:49:07.582Z,2.42
2023-05-23T16:52:01.792Z,1.90
2023-05-23T16:54:55.765Z,2.25
2023-05-23T16:57:49.455Z,2.05
2023-05-23T17:00:42.392Z,2.00
2023-05-23T17:03:35.628Z,2.20
2023-05-23T17:06:29.669Z,2.08
2023-05-23T17:09:24.015Z,2.20
2023-05-23T17:12:17.249Z,2.20
2023-05-23T17:15:11.416Z,2.28
2023-05-23T17:18:04.729Z,1.85
2023-05-23T17:20:58.214Z,1.80
2023-05-23T17:23:51.426Z,2.00
2023-05-23T17:26:45.649Z,2.08
2023-05-23T17:29:39.515Z,2.00
2023-05-23T17:32:32.383Z,2.17
2023-05-23T17:35:25.066Z,1.80
2023-05-23T17:38:18.183Z,2.30
2023-05-23T17:41:11.217Z,2.13
2023-05-23T17:44:05.939Z,2.00
2023-05-23T17:46:59.794Z,2.22
2023-05-23T17:49:53.729Z,1.98
2023-05-23T17:52:47.861Z,2.40
2023-05-23T17:55:41.371Z,2.00
2023-05-23T17:58:34.355Z,2.30
2023-05-23T18:01:29.178Z,2.25
2023-05-23T18:04:24.337Z,2.20
2023-05-23T18:07:18.718Z,2.55
2023-05-23T18:10:13.104Z,2.00
2023-05-23T18:13:06.275Z,1.90
2023-05-23T18:15:59.474Z,2.00
2023-05-23T18:18:53.553Z,2.17
2023-05-23T18:21:46.435Z,2.33
2023-05-23T18:24:40.486Z,1.70
2023-05-23T18:27:33.400Z,2.10
2023-05-23T18:30:27.765Z,1.80
2023-05-23T18:33:22.066Z,2.03
2023-05-23T18:36:16.645Z,2.05
2023-05-23T18:39:10.298Z,2.10
2023-05-23T18:42:03.719Z,1.80
2023-05-23T18:44:56.571Z,1.75
2023-05-23T18:47:49.819Z,1.90
2023-05-23T18:50:43.929Z,1.83
2023-05-23T18:53:42.170Z,1.98
2023-05-23T18:56:35.423Z,1.85
2023-05-23T18:59:28.448Z,2.00
2023-05-23T19:02:21.520Z,1.48
2023-05-23T19:05:14.535Z,2.00
2023-05-23T19:08:07.544Z,2.28
2023-05-23T19:11:02.058Z,2.53
2023-05-23T19:13:55.348Z,2.50
2023-05-23T19:16:48.650Z,2.60
2023-05-23T19:19:41.361Z,2.20
2023-05-23T19:22:50.266Z,2.28
2023-05-23T19:25:44.758Z,2.83
2023-05-23T19:28:42.196Z,2.45
2023-05-23T19:31:36.077Z,2.38
2023-05-23T19:34:29.445Z,2.28
2023-05-23T19:37:22.946Z,3.00
2023-05-23T19:40:18.394Z,2.60
2023-05-23T19:43:11.799Z,2.40
2023-05-23T19:46:05.925Z,2.92
2023-05-23T19:48:59.455Z,3.22
2023-05-23T19:51:52.621Z,2.75
2023-05-23T19:54:45.381Z,3.00
2023-05-23T19:57:38.408Z,2.80
2023-05-23T20:00:31.346Z,2.42
2023-05-23T20:03:25.842Z,2.80
2023-05-23T20:06:20.718Z,2.65
2023-05-23T20:09:14.754Z,2.35
2023-05-23T20:12:07.983Z,2.45
2023-05-23T20:15:01.616Z,2.78
2023-05-23T20:17:54.443Z,2.75
2023-05-23T20:20:48.752Z,2.92
2023-05-23T20:23:44.903Z,2.47
2023-05-23T20:26:38.539Z,3.17
2023-05-23T20:29:34.652Z,2.75
2023-05-23T20:32:27.475Z,2.58
2023-05-23T20:35:20.576Z,2.72
2023-05-23T20:38:14.875Z,2.63
2023-05-23T20:41:08.520Z,2.67
2023-05-23T20:44:01.597Z,3.05
2023-05-23T20:46:56.892Z,2.50
2023-05-23T20:49:51.051Z,2.65
2023-05-23T20:52:44.392Z,2.30
2023-05-23T20:55:39.180Z,3.28
2023-05-23T20:58:33.698Z,2.40
2023-05-23T21:01:26.797Z,2.75
2023-05-23T21:04:19.493Z,2.67
2023-05-23T21:07:13.274Z,2.67
2023-05-23T21:10:07.441Z,2.50
2023-05-23T21:13:02.316Z,2.13
2023-05-23T21:15:55.476Z,2.97
2023-05-23T21:18:48.557Z,2.65
2023-05-23T21:21:41.595Z,2.88
2023-05-23T21:24:34.665Z,2.55
2023-05-23T21:27:29.177Z,3.05
2023-05-23T21:30:25.114Z,2.63
2023-05-23T21:33:19.805Z,2.70
2023-05-23T21:36:12.853Z,2.40
2023-05-23T21:39:05.900Z,3.15
2023-05-23T21:41:59.982Z,2.72
2023-05-23T21:44:53.775Z,2.70
2023-05-23T21:47:48.181Z,2.63
2023-05-23T21:50:41.757Z,2.70
2023-05-23T21:53:34.964Z,2.42
2023-05-23T21:56:28.680Z,2.38
2023-05-23T21:59:21.875Z,3.15
2023-05-23T22:02:14.747Z,2.42
2023-05-23T22:05:09.635Z,2.42
2023-05-23T22:08:03.354Z,2.60
2023-05-23T22:10:56.698Z,2.35
2023-05-23T22:13:49.417Z,3.00
2023-05-23T22:16:42.864Z,2.25
2023-05-23T22:19:36.411Z,2.45
2023-05-23T22:22:31.556Z,2.10
2023-05-23T22:25:24.996Z,2.58
2023-05-23T22:28:18.640Z,2.28
2023-05-23T22:31:13.113Z,2.65
2023-05-23T22:34:06.549Z,2.50
2023-05-23T22:37:00.377Z,2.53
2023-05-23T22:39:54.732Z,2.63
2023-05-23T22:42:47.687Z,2.30
2023-05-23T22:45:42.550Z,2.05
2023-05-23T22:48:35.856Z,2.58
2023-05-23T22:51:29.336Z,2.30
2023-05-23T22:54:22.430Z,2.55
2023-05-23T22:57:16.792Z,2.80
2023-05-23T23:00:10.969Z,2.30
2023-05-23T23:03:03.936Z,2.42
2023-05-23T23:05:59.256Z,2.30
2023-05-23T23:08:52.805Z,2.38
2023-05-23T23:11:45.947Z,2.60
2023-05-23T23:14:40.083Z,2.08
2023-05-23T23:17:33.688Z,2.85
2023-05-23T23:20:26.607Z,2.33
2023-05-23T23:23:19.367Z,2.40
2023-05-23T23:26:12.579Z,2.28
2023-05-23T23:29:05.977Z,2.67
2023-05-23T23:32:01.340Z,2.25
2023-05-23T23:34:55.057Z,2.30
2023-05-23T23:37:49.432Z,2.70
2023-05-23T23:40:44.328Z,2.67
2023-05-23T23:43:37.339Z,2.28
2023-05-23T23:46:30.712Z,2.40
2023-05-23T23:49:24.936Z,2.55
2023-05-23T23:52:17.817Z,2.58
2023-05-23T23:55:12.186Z,2.70
2023-05-23T23:58:05.960Z,2.80
